TAF/METAR LISTING

Current time:2/28/7:17 Z
Looking Back to:2/28/07:17 Z, going back 0 hour(s)

METAR:

SPECI PAFA 280710Z 19006KT 10SM FEW017 BKN090 BKN170 M18/M21 A2945
RMK AO2 T11781211 $ =

______________________________________

TAF:
TAFAFA
TAF AMD
PAFA 280629Z 2806/0112 VRB06KT P6SM VCSH BKN025 OVC050
FM281100 VRB04KT 4SM -SN BR BKN025 OVC050
FM281500 VRB04KT 2SM -SN BR BKN020 OVC035
FM010000 VRB04KT 4SM -SN BR BKN025 OVC050
FM010400 VRB04KT P6SM BKN050 OVC100 =